Terminal Aerodrome Forecast
Issued by NWS Central Illinois

Home | Current Version | Previous Version | Text Only | Print | Product List | Glossary On
Versions: 1 2 3 4 5 6 7 8 9 10 11 12 13
000
FTUS43 KILX 251327 AAA
TAFPIA
TAF AMD
KPIA 251327Z 2513/2612 17007KT P6SM SCT120 BKN250
     FM251500 18011G18KT P6SM VCTS SCT050CB BKN150
      TEMPO 2515/2516 6SM TSRA BKN050CB
     FM260200 18008KT P6SM VCSH BKN050 BKN120=

USA.gov is the U.S. government's official web portal to all federal, state and local government web resources and services.